sensor_id;sensor_type;location;lat;lon;timestamp;P1;durP1;ratioP1;P2;durP2;ratioP2
67768;SDS011;54569;52.018;5.584;2023-07-20T00:01:54;8.20;;;6.18;;
67768;SDS011;54569;52.018;5.584;2023-07-20T00:04:20;7.13;;;6.10;;
67768;SDS011;54569;52.018;5.584;2023-07-20T00:06:46;7.22;;;6.35;;
67768;SDS011;54569;52.018;5.584;2023-07-20T00:09:11;6.07;;;5.57;;
67768;SDS011;54569;52.018;5.584;2023-07-20T00:11:37;6.80;;;5.15;;
67768;SDS011;54569;52.018;5.584;2023-07-20T00:14:04;6.78;;;6.20;;
67768;SDS011;54569;52.018;5.584;2023-07-20T00:16:30;5.90;;;5.32;;
67768;SDS011;54569;52.018;5.584;2023-07-20T00:18:56;7.30;;;6.60;;
67768;SDS011;54569;52.018;5.584;2023-07-20T00:21:21;6.38;;;5.78;;
67768;SDS011;54569;52.018;5.584;2023-07-20T00:23:47;7.00;;;6.30;;
67768;SDS011;54569;52.018;5.584;2023-07-20T00:26:13;6.60;;;5.70;;
67768;SDS011;54569;52.018;5.584;2023-07-20T00:28:38;5.75;;;5.13;;
67768;SDS011;54569;52.018;5.584;2023-07-20T00:31:04;5.43;;;4.82;;
67768;SDS011;54569;52.018;5.584;2023-07-20T00:33:30;8.20;;;6.07;;
67768;SDS011;54569;52.018;5.584;2023-07-20T00:35:55;5.95;;;5.35;;
67768;SDS011;54569;52.018;5.584;2023-07-20T00:38:21;5.25;;;4.75;;
67768;SDS011;54569;52.018;5.584;2023-07-20T00:40:47;6.75;;;5.07;;
67768;SDS011;54569;52.018;5.584;2023-07-20T00:43:16;6.22;;;5.13;;
67768;SDS011;54569;52.018;5.584;2023-07-20T00:45:42;5.45;;;4.95;;
67768;SDS011;54569;52.018;5.584;2023-07-20T00:48:09;5.28;;;4.88;;
67768;SDS011;54569;52.018;5.584;2023-07-20T00:50:35;5.63;;;5.13;;
67768;SDS011;54569;52.018;5.584;2023-07-20T00:53:02;5.28;;;4.88;;
67768;SDS011;54569;52.018;5.584;2023-07-20T00:55:31;6.03;;;5.38;;
67768;SDS011;54569;52.018;5.584;2023-07-20T00:57:57;5.10;;;4.68;;
67768;SDS011;54569;52.018;5.584;2023-07-20T01:00:24;4.93;;;4.53;;
67768;SDS011;54569;52.018;5.584;2023-07-20T01:02:50;4.32;;;4.03;;
67768;SDS011;54569;52.018;5.584;2023-07-20T01:05:16;4.95;;;4.18;;
67768;SDS011;54569;52.018;5.584;2023-07-20T01:07:44;4.03;;;3.70;;
67768;SDS011;54569;52.018;5.584;2023-07-20T01:10:23;4.20;;;3.80;;
67768;SDS011;54569;52.018;5.584;2023-07-20T01:12:56;4.90;;;4.40;;
67768;SDS011;54569;52.018;5.584;2023-07-20T01:15:22;3.92;;;3.53;;
67768;SDS011;54569;52.018;5.584;2023-07-20T01:17:49;3.80;;;3.45;;
67768;SDS011;54569;52.018;5.584;2023-07-20T01:20:15;4.38;;;3.70;;
67768;SDS011;54569;52.018;5.584;2023-07-20T01:25:32;3.20;;;2.90;;
67768;SDS011;54569;52.018;5.584;2023-07-20T01:33:47;1.83;;;1.73;;
67768;SDS011;54569;52.018;5.584;2023-07-20T01:36:16;2.33;;;1.88;;
67768;SDS011;54569;52.018;5.584;2023-07-20T01:38:43;2.47;;;2.25;;
67768;SDS011;54569;52.018;5.584;2023-07-20T01:41:10;2.42;;;2.20;;
67768;SDS011;54569;52.018;5.584;2023-07-20T01:43:36;2.38;;;2.17;;
67768;SDS011;54569;52.018;5.584;2023-07-20T01:46:04;2.03;;;1.83;;
67768;SDS011;54569;52.018;5.584;2023-07-20T01:48:29;2.28;;;2.08;;
67768;SDS011;54569;52.018;5.584;2023-07-20T01:50:56;1.85;;;1.75;;
67768;SDS011;54569;52.018;5.584;2023-07-20T01:53:22;1.70;;;1.60;;
67768;SDS011;54569;52.018;5.584;2023-07-20T01:55:48;1.83;;;1.73;;
67768;SDS011;54569;52.018;5.584;2023-07-20T01:58:13;1.80;;;1.70;;
67768;SDS011;54569;52.018;5.584;2023-07-20T02:00:39;1.80;;;1.70;;
67768;SDS011;54569;52.018;5.584;2023-07-20T02:03:05;2.60;;;2.10;;
67768;SDS011;54569;52.018;5.584;2023-07-20T02:05:31;1.98;;;1.80;;
67768;SDS011;54569;52.018;5.584;2023-07-20T02:07:57;2.38;;;2.17;;
67768;SDS011;54569;52.018;5.584;2023-07-20T02:10:23;2.45;;;2.35;;
67768;SDS011;54569;52.018;5.584;2023-07-20T02:12:48;2.10;;;2.00;;
67768;SDS011;54569;52.018;5.584;2023-07-20T02:15:14;2.30;;;2.10;;
67768;SDS011;54569;52.018;5.584;2023-07-20T02:17:44;2.10;;;2.00;;
67768;SDS011;54569;52.018;5.584;2023-07-20T02:20:10;2.00;;;1.90;;
67768;SDS011;54569;52.018;5.584;2023-07-20T02:22:36;2.47;;;2.10;;
67768;SDS011;54569;52.018;5.584;2023-07-20T02:25:05;2.08;;;1.95;;
67768;SDS011;54569;52.018;5.584;2023-07-20T02:27:32;1.88;;;1.77;;
67768;SDS011;54569;52.018;5.584;2023-07-20T02:29:59;2.20;;;1.98;;
67768;SDS011;54569;52.018;5.584;2023-07-20T02:32:25;2.63;;;2.30;;
67768;SDS011;54569;52.018;5.584;2023-07-20T02:34:51;2.28;;;2.10;;
67768;SDS011;54569;52.018;5.584;2023-07-20T02:37:17;2.42;;;2.22;;
67768;SDS011;54569;52.018;5.584;2023-07-20T02:39:43;2.50;;;2.30;;
67768;SDS011;54569;52.018;5.584;2023-07-20T02:42:09;2.42;;;2.22;;
67768;SDS011;54569;52.018;5.584;2023-07-20T02:44:35;2.55;;;2.35;;
67768;SDS011;54569;52.018;5.584;2023-07-20T02:47:00;2.88;;;2.22;;
67768;SDS011;54569;52.018;5.584;2023-07-20T02:49:27;2.75;;;2.38;;
67768;SDS011;54569;52.018;5.584;2023-07-20T02:51:53;3.42;;;2.10;;
67768;SDS011;54569;52.018;5.584;2023-07-20T02:54:20;3.22;;;2.40;;
67768;SDS011;54569;52.018;5.584;2023-07-20T02:56:46;2.70;;;2.08;;
67768;SDS011;54569;52.018;5.584;2023-07-20T02:59:11;2.17;;;1.98;;
67768;SDS011;54569;52.018;5.584;2023-07-20T03:01:37;2.50;;;2.40;;
67768;SDS011;54569;52.018;5.584;2023-07-20T03:04:03;2.60;;;2.40;;
67768;SDS011;54569;52.018;5.584;2023-07-20T03:06:29;4.88;;;2.25;;
67768;SDS011;54569;52.018;5.584;2023-07-20T03:08:55;2.22;;;2.13;;
67768;SDS011;54569;52.018;5.584;2023-07-20T03:11:20;2.72;;;2.60;;
67768;SDS011;54569;52.018;5.584;2023-07-20T03:13:48;2.58;;;2.42;;
67768;SDS011;54569;52.018;5.584;2023-07-20T03:16:17;2.22;;;2.13;;
67768;SDS011;54569;52.018;5.584;2023-07-20T03:18:44;3.03;;;2.83;;
67768;SDS011;54569;52.018;5.584;2023-07-20T03:21:11;2.75;;;2.60;;
67768;SDS011;54569;52.018;5.584;2023-07-20T03:23:37;2.55;;;2.40;;
67768;SDS011;54569;52.018;5.584;2023-07-20T03:26:03;2.80;;;2.60;;
67768;SDS011;54569;52.018;5.584;2023-07-20T03:28:30;4.32;;;2.72;;
67768;SDS011;54569;52.018;5.584;2023-07-20T03:30:56;3.75;;;3.25;;
67768;SDS011;54569;52.018;5.584;2023-07-20T03:33:27;3.65;;;3.30;;
67768;SDS011;54569;52.018;5.584;2023-07-20T03:35:56;3.63;;;3.33;;
67768;SDS011;54569;52.018;5.584;2023-07-20T03:38:23;4.00;;;3.60;;
67768;SDS011;54569;52.018;5.584;2023-07-20T03:40:50;3.40;;;3.17;;
67768;SDS011;54569;52.018;5.584;2023-07-20T03:43:20;4.20;;;3.85;;
67768;SDS011;54569;52.018;5.584;2023-07-20T03:45:46;3.72;;;3.42;;
67768;SDS011;54569;52.018;5.584;2023-07-20T03:48:14;3.25;;;2.92;;
67768;SDS011;54569;52.018;5.584;2023-07-20T03:50:41;3.35;;;3.05;;
67768;SDS011;54569;52.018;5.584;2023-07-20T03:53:06;3.75;;;3.40;;
67768;SDS011;54569;52.018;5.584;2023-07-20T03:55:32;2.78;;;2.58;;
67768;SDS011;54569;52.018;5.584;2023-07-20T03:58:00;3.70;;;2.80;;
67768;SDS011;54569;52.018;5.584;2023-07-20T04:00:26;3.83;;;2.90;;
67768;SDS011;54569;52.018;5.584;2023-07-20T04:02:55;2.65;;;2.45;;
67768;SDS011;54569;52.018;5.584;2023-07-20T04:05:20;3.00;;;2.70;;
67768;SDS011;54569;52.018;5.584;2023-07-20T04:07:46;2.67;;;2.47;;
67768;SDS011;54569;52.018;5.584;2023-07-20T04:10:12;3.60;;;2.95;;
67768;SDS011;54569;52.018;5.584;2023-07-20T04:12:38;3.60;;;2.92;;
67768;SDS011;54569;52.018;5.584;2023-07-20T04:15:04;2.95;;;2.72;;
67768;SDS011;54569;52.018;5.584;2023-07-20T04:17:30;3.25;;;2.95;;
67768;SDS011;54569;52.018;5.584;2023-07-20T04:19:55;3.00;;;2.75;;
67768;SDS011;54569;52.018;5.584;2023-07-20T04:22:21;2.83;;;2.63;;
67768;SDS011;54569;52.018;5.584;2023-07-20T04:24:47;4.35;;;2.63;;
67768;SDS011;54569;52.018;5.584;2023-07-20T04:27:13;3.00;;;2.80;;
67768;SDS011;54569;52.018;5.584;2023-07-20T04:29:39;3.00;;;2.70;;
67768;SDS011;54569;52.018;5.584;2023-07-20T04:32:05;2.55;;;2.35;;
67768;SDS011;54569;52.018;5.584;2023-07-20T04:34:32;2.88;;;2.40;;
67768;SDS011;54569;52.018;5.584;2023-07-20T04:36:57;2.75;;;2.63;;
67768;SDS011;54569;52.018;5.584;2023-07-20T04:39:26;3.10;;;2.90;;
67768;SDS011;54569;52.018;5.584;2023-07-20T04:41:52;2.60;;;2.45;;
67768;SDS011;54569;52.018;5.584;2023-07-20T04:44:19;2.35;;;2.15;;
67768;SDS011;54569;52.018;5.584;2023-07-20T04:46:45;3.17;;;2.85;;
67768;SDS011;54569;52.018;5.584;2023-07-20T04:49:11;3.78;;;2.60;;
67768;SDS011;54569;52.018;5.584;2023-07-20T04:51:40;2.63;;;2.42;;
67768;SDS011;54569;52.018;5.584;2023-07-20T04:54:06;2.70;;;2.50;;
67768;SDS011;54569;52.018;5.584;2023-07-20T04:56:35;2.35;;;2.25;;
67768;SDS011;54569;52.018;5.584;2023-07-20T04:59:04;2.75;;;2.55;;
67768;SDS011;54569;52.018;5.584;2023-07-20T05:01:29;3.05;;;2.22;;
67768;SDS011;54569;52.018;5.584;2023-07-20T05:03:55;3.50;;;2.53;;
67768;SDS011;54569;52.018;5.584;2023-07-20T05:06:21;2.58;;;2.38;;
67768;SDS011;54569;52.018;5.584;2023-07-20T05:08:47;3.47;;;2.92;;
67768;SDS011;54569;52.018;5.584;2023-07-20T05:11:13;2.50;;;2.33;;
67768;SDS011;54569;52.018;5.584;2023-07-20T05:13:38;3.10;;;2.90;;
67768;SDS011;54569;52.018;5.584;2023-07-20T05:16:04;2.75;;;2.55;;
67768;SDS011;54569;52.018;5.584;2023-07-20T05:18:31;4.20;;;3.13;;
67768;SDS011;54569;52.018;5.584;2023-07-20T05:20:58;2.58;;;2.40;;
67768;SDS011;54569;52.018;5.584;2023-07-20T05:23:24;3.05;;;2.63;;
67768;SDS011;54569;52.018;5.584;2023-07-20T05:25:59;3.20;;;2.67;;
67768;SDS011;54569;52.018;5.584;2023-07-20T05:28:26;3.45;;;3.15;;
67768;SDS011;54569;52.018;5.584;2023-07-20T05:30:54;4.75;;;3.58;;
67768;SDS011;54569;52.018;5.584;2023-07-20T05:33:20;4.43;;;2.97;;
67768;SDS011;54569;52.018;5.584;2023-07-20T05:35:46;3.42;;;3.03;;
67768;SDS011;54569;52.018;5.584;2023-07-20T05:38:12;3.53;;;3.13;;
67768;SDS011;54569;52.018;5.584;2023-07-20T05:40:39;3.30;;;3.10;;
67768;SDS011;54569;52.018;5.584;2023-07-20T05:43:06;5.57;;;3.40;;
67768;SDS011;54569;52.018;5.584;2023-07-20T05:45:32;5.38;;;3.65;;
67768;SDS011;54569;52.018;5.584;2023-07-20T05:47:58;3.58;;;3.25;;
67768;SDS011;54569;52.018;5.584;2023-07-20T05:50:23;3.40;;;3.10;;
67768;SDS011;54569;52.018;5.584;2023-07-20T05:52:52;4.47;;;3.50;;
67768;SDS011;54569;52.018;5.584;2023-07-20T05:55:18;4.00;;;3.53;;
67768;SDS011;54569;52.018;5.584;2023-07-20T05:57:44;3.53;;;2.95;;
67768;SDS011;54569;52.018;5.584;2023-07-20T06:00:10;4.20;;;3.80;;
67768;SDS011;54569;52.018;5.584;2023-07-20T06:02:38;4.38;;;3.97;;
67768;SDS011;54569;52.018;5.584;2023-07-20T06:05:04;4.65;;;3.53;;
67768;SDS011;54569;52.018;5.584;2023-07-20T06:07:33;4.60;;;3.35;;
67768;SDS011;54569;52.018;5.584;2023-07-20T06:09:58;3.95;;;3.47;;
67768;SDS011;54569;52.018;5.584;2023-07-20T06:12:24;4.40;;;3.30;;
67768;SDS011;54569;52.018;5.584;2023-07-20T06:14:50;4.38;;;3.10;;
67768;SDS011;54569;52.018;5.584;2023-07-20T06:17:16;2.88;;;2.65;;
67768;SDS011;54569;52.018;5.584;2023-07-20T06:19:41;3.70;;;3.40;;
67768;SDS011;54569;52.018;5.584;2023-07-20T06:22:07;3.50;;;3.10;;
67768;SDS011;54569;52.018;5.584;2023-07-20T06:24:33;3.22;;;2.92;;
67768;SDS011;54569;52.018;5.584;2023-07-20T06:26:59;2.85;;;2.65;;
67768;SDS011;54569;52.018;5.584;2023-07-20T06:29:24;3.00;;;2.78;;
67768;SDS011;54569;52.018;5.584;2023-07-20T06:31:50;2.45;;;1.52;;
67768;SDS011;54569;52.018;5.584;2023-07-20T06:34:15;2.20;;;1.73;;
67768;SDS011;54569;52.018;5.584;2023-07-20T06:36:41;1.98;;;1.88;;
67768;SDS011;54569;52.018;5.584;2023-07-20T06:39:07;1.95;;;1.70;;
67768;SDS011;54569;52.018;5.584;2023-07-20T06:41:32;1.88;;;1.77;;
67768;SDS011;54569;52.018;5.584;2023-07-20T06:43:58;2.42;;;1.80;;
67768;SDS011;54569;52.018;5.584;2023-07-20T06:46:25;1.30;;;1.30;;
67768;SDS011;54569;52.018;5.584;2023-07-20T06:48:51;1.02;;;1.02;;
67768;SDS011;54569;52.018;5.584;2023-07-20T06:51:16;1.67;;;1.17;;
67768;SDS011;54569;52.018;5.584;2023-07-20T06:53:43;1.65;;;1.38;;
67768;SDS011;54569;52.018;5.584;2023-07-20T06:56:09;1.45;;;1.05;;
67768;SDS011;54569;52.018;5.584;2023-07-20T06:58:34;1.70;;;1.60;;
67768;SDS011;54569;52.018;5.584;2023-07-20T07:01:04;2.53;;;1.55;;
67768;SDS011;54569;52.018;5.584;2023-07-20T07:03:33;2.47;;;2.00;;
67768;SDS011;54569;52.018;5.584;2023-07-20T07:06:00;2.00;;;1.60;;
67768;SDS011;54569;52.018;5.584;2023-07-20T07:08:25;1.98;;;1.25;;
67768;SDS011;54569;52.018;5.584;2023-07-20T07:10:52;0.93;;;0.90;;
67768;SDS011;54569;52.018;5.584;2023-07-20T07:13:18;0.80;;;0.80;;
67768;SDS011;54569;52.018;5.584;2023-07-20T07:15:44;3.30;;;1.10;;
67768;SDS011;54569;52.018;5.584;2023-07-20T07:18:11;1.67;;;0.98;;
67768;SDS011;54569;52.018;5.584;2023-07-20T07:20:36;1.40;;;1.30;;
67768;SDS011;54569;52.018;5.584;2023-07-20T07:23:02;1.58;;;1.20;;
67768;SDS011;54569;52.018;5.584;2023-07-20T07:25:28;0.85;;;0.85;;
67768;SDS011;54569;52.018;5.584;2023-07-20T07:27:55;1.00;;;1.00;;
67768;SDS011;54569;52.018;5.584;2023-07-20T07:30:21;2.33;;;1.10;;
67768;SDS011;54569;52.018;5.584;2023-07-20T07:32:47;1.55;;;1.10;;
67768;SDS011;54569;52.018;5.584;2023-07-20T07:35:13;0.75;;;0.75;;
67768;SDS011;54569;52.018;5.584;2023-07-20T07:37:38;0.88;;;0.88;;
67768;SDS011;54569;52.018;5.584;2023-07-20T07:40:04;2.00;;;1.10;;
67768;SDS011;54569;52.018;5.584;2023-07-20T07:42:31;1.70;;;1.00;;
67768;SDS011;54569;52.018;5.584;2023-07-20T07:44:57;2.13;;;0.82;;
67768;SDS011;54569;52.018;5.584;2023-07-20T07:47:22;0.80;;;0.80;;
67768;SDS011;54569;52.018;5.584;2023-07-20T07:49:48;3.38;;;1.20;;
67768;SDS011;54569;52.018;5.584;2023-07-20T07:52:15;1.48;;;0.90;;
67768;SDS011;54569;52.018;5.584;2023-07-20T07:54:40;2.35;;;0.93;;
67768;SDS011;54569;52.018;5.584;2023-07-20T07:57:06;0.98;;;0.93;;
67768;SDS011;54569;52.018;5.584;2023-07-20T07:59:32;1.67;;;1.05;;
67768;SDS011;54569;52.018;5.584;2023-07-20T08:02:02;1.02;;;1.02;;
67768;SDS011;54569;52.018;5.584;2023-07-20T08:04:29;3.20;;;1.00;;
67768;SDS011;54569;52.018;5.584;2023-07-20T08:06:55;1.73;;;1.20;;
67768;SDS011;54569;52.018;5.584;2023-07-20T08:09:21;3.05;;;1.10;;
67768;SDS011;54569;52.018;5.584;2023-07-20T08:11:46;0.90;;;0.90;;
67768;SDS011;54569;52.018;5.584;2023-07-20T08:14:13;1.58;;;0.90;;
67768;SDS011;54569;52.018;5.584;2023-07-20T08:16:39;0.90;;;0.90;;
67768;SDS011;54569;52.018;5.584;2023-07-20T08:19:04;1.10;;;1.10;;
67768;SDS011;54569;52.018;5.584;2023-07-20T08:21:30;2.35;;;0.80;;
67768;SDS011;54569;52.018;5.584;2023-07-20T08:23:56;0.90;;;0.90;;
67768;SDS011;54569;52.018;5.584;2023-07-20T08:26:22;0.85;;;0.85;;
67768;SDS011;54569;52.018;5.584;2023-07-20T08:28:48;0.88;;;0.88;;
67768;SDS011;54569;52.018;5.584;2023-07-20T08:31:14;1.13;;;0.90;;
67768;SDS011;54569;52.018;5.584;2023-07-20T08:33:40;2.60;;;0.98;;
67768;SDS011;54569;52.018;5.584;2023-07-20T08:36:06;1.40;;;0.80;;
67768;SDS011;54569;52.018;5.584;2023-07-20T08:38:31;0.80;;;0.80;;
67768;SDS011;54569;52.018;5.584;2023-07-20T08:40:57;0.88;;;0.88;;
67768;SDS011;54569;52.018;5.584;2023-07-20T08:43:25;1.08;;;0.98;;
67768;SDS011;54569;52.018;5.584;2023-07-20T08:45:54;2.35;;;1.00;;
67768;SDS011;54569;52.018;5.584;2023-07-20T08:48:21;0.88;;;0.88;;
67768;SDS011;54569;52.018;5.584;2023-07-20T08:50:47;0.93;;;0.90;;
67768;SDS011;54569;52.018;5.584;2023-07-20T08:53:15;1.15;;;1.10;;
67768;SDS011;54569;52.018;5.584;2023-07-20T08:55:42;1.33;;;1.10;;
67768;SDS011;54569;52.018;5.584;2023-07-20T08:58:12;1.35;;;1.10;;
67768;SDS011;54569;52.018;5.584;2023-07-20T09:00:39;2.08;;;1.10;;
67768;SDS011;54569;52.018;5.584;2023-07-20T09:03:06;1.83;;;1.40;;
67768;SDS011;54569;52.018;5.584;2023-07-20T09:05:33;1.02;;;1.02;;
67768;SDS011;54569;52.018;5.584;2023-07-20T09:08:00;1.13;;;1.10;;
67768;SDS011;54569;52.018;5.584;2023-07-20T09:10:28;1.10;;;1.00;;
67768;SDS011;54569;52.018;5.584;2023-07-20T09:12:54;0.88;;;0.88;;
67768;SDS011;54569;52.018;5.584;2023-07-20T09:15:21;1.50;;;1.20;;
67768;SDS011;54569;52.018;5.584;2023-07-20T09:17:48;1.50;;;1.00;;
67768;SDS011;54569;52.018;5.584;2023-07-20T09:20:15;1.90;;;0.90;;
67768;SDS011;54569;52.018;5.584;2023-07-20T09:22:42;1.08;;;1.05;;
67768;SDS011;54569;52.018;5.584;2023-07-20T09:25:17;1.08;;;1.08;;
67768;SDS011;54569;52.018;5.584;2023-07-20T09:27:47;2.03;;;1.08;;
67768;SDS011;54569;52.018;5.584;2023-07-20T09:30:14;1.20;;;1.00;;
67768;SDS011;54569;52.018;5.584;2023-07-20T09:32:45;2.33;;;1.27;;
67768;SDS011;54569;52.018;5.584;2023-07-20T09:35:15;3.22;;;1.30;;
67768;SDS011;54569;52.018;5.584;2023-07-20T09:37:53;1.20;;;1.10;;
67768;SDS011;54569;52.018;5.584;2023-07-20T09:40:26;1.50;;;1.13;;
67768;SDS011;54569;52.018;5.584;2023-07-20T09:42:53;1.70;;;1.10;;
67768;SDS011;54569;52.018;5.584;2023-07-20T09:45:35;1.00;;;0.90;;
67768;SDS011;54569;52.018;5.584;2023-07-20T09:48:08;0.82;;;0.82;;
67768;SDS011;54569;52.018;5.584;2023-07-20T09:50:42;0.65;;;0.65;;
67768;SDS011;54569;52.018;5.584;2023-07-20T09:53:13;0.90;;;0.90;;
67768;SDS011;54569;52.018;5.584;2023-07-20T09:55:40;2.03;;;0.77;;
67768;SDS011;54569;52.018;5.584;2023-07-20T09:58:08;0.90;;;0.80;;
67768;SDS011;54569;52.018;5.584;2023-07-20T10:00:37;1.35;;;0.90;;
67768;SDS011;54569;52.018;5.584;2023-07-20T10:03:05;1.27;;;0.82;;
67768;SDS011;54569;52.018;5.584;2023-07-20T10:05:32;0.70;;;0.70;;
67768;SDS011;54569;52.018;5.584;2023-07-20T10:08:01;1.60;;;0.82;;
67768;SDS011;54569;52.018;5.584;2023-07-20T10:10:28;2.90;;;0.85;;
67768;SDS011;54569;52.018;5.584;2023-07-20T10:12:55;0.60;;;0.60;;
67768;SDS011;54569;52.018;5.584;2023-07-20T10:15:24;0.85;;;0.60;;
67768;SDS011;54569;52.018;5.584;2023-07-20T10:17:59;1.27;;;0.80;;
67768;SDS011;54569;52.018;5.584;2023-07-20T10:20:29;1.15;;;0.75;;
67768;SDS011;54569;52.018;5.584;2023-07-20T10:22:57;1.00;;;0.63;;
67768;SDS011;54569;52.018;5.584;2023-07-20T10:25:23;0.57;;;0.57;;
67768;SDS011;54569;52.018;5.584;2023-07-20T10:27:49;2.05;;;0.60;;
67768;SDS011;54569;52.018;5.584;2023-07-20T10:30:15;0.82;;;0.60;;
67768;SDS011;54569;52.018;5.584;2023-07-20T10:32:42;1.48;;;0.75;;
67768;SDS011;54569;52.018;5.584;2023-07-20T10:35:13;1.35;;;0.90;;
67768;SDS011;54569;52.018;5.584;2023-07-20T10:37:46;1.95;;;0.80;;
67768;SDS011;54569;52.018;5.584;2023-07-20T10:40:31;0.40;;;0.40;;
67768;SDS011;54569;52.018;5.584;2023-07-20T10:43:02;0.75;;;0.75;;
67768;SDS011;54569;52.018;5.584;2023-07-20T10:45:33;0.90;;;0.90;;
67768;SDS011;54569;52.018;5.584;2023-07-20T10:48:03;1.15;;;0.60;;
67768;SDS011;54569;52.018;5.584;2023-07-20T10:50:31;0.70;;;0.70;;
67768;SDS011;54569;52.018;5.584;2023-07-20T10:53:10;1.02;;;0.93;;
67768;SDS011;54569;52.018;5.584;2023-07-20T10:55:40;1.08;;;0.77;;
67768;SDS011;54569;52.018;5.584;2023-07-20T10:58:10;1.00;;;0.80;;
67768;SDS011;54569;52.018;5.584;2023-07-20T11:00:59;1.05;;;0.70;;
67768;SDS011;54569;52.018;5.584;2023-07-20T11:03:27;1.02;;;0.70;;
67768;SDS011;54569;52.018;5.584;2023-07-20T11:05:54;1.70;;;0.80;;
67768;SDS011;54569;52.018;5.584;2023-07-20T11:08:40;0.98;;;0.80;;
67768;SDS011;54569;52.018;5.584;2023-07-20T11:16:33;0.60;;;0.40;;
67768;SDS011;54569;52.018;5.584;2023-07-20T11:19:02;1.48;;;0.70;;
67768;SDS011;54569;52.018;5.584;2023-07-20T11:21:30;0.63;;;0.50;;
67768;SDS011;54569;52.018;5.584;2023-07-20T11:24:05;0.68;;;0.68;;
67768;SDS011;54569;52.018;5.584;2023-07-20T11:26:39;0.85;;;0.73;;
67768;SDS011;54569;52.018;5.584;2023-07-20T11:29:05;0.88;;;0.70;;
67768;SDS011;54569;52.018;5.584;2023-07-20T11:31:34;0.60;;;0.60;;
67768;SDS011;54569;52.018;5.584;2023-07-20T11:34:00;0.68;;;0.60;;
67768;SDS011;54569;52.018;5.584;2023-07-20T11:36:26;1.25;;;0.73;;
67768;SDS011;54569;52.018;5.584;2023-07-20T11:38:52;2.55;;;0.80;;
67768;SDS011;54569;52.018;5.584;2023-07-20T11:41:19;1.17;;;0.70;;
67768;SDS011;54569;52.018;5.584;2023-07-20T11:43:45;0.60;;;0.60;;
67768;SDS011;54569;52.018;5.584;2023-07-20T11:46:10;0.80;;;0.80;;
67768;SDS011;54569;52.018;5.584;2023-07-20T11:48:36;0.80;;;0.80;;
67768;SDS011;54569;52.018;5.584;2023-07-20T11:51:02;2.15;;;0.70;;
67768;SDS011;54569;52.018;5.584;2023-07-20T11:53:28;0.60;;;0.60;;
67768;SDS011;54569;52.018;5.584;2023-07-20T11:55:54;1.40;;;0.68;;
67768;SDS011;54569;52.018;5.584;2023-07-20T11:58:19;0.68;;;0.65;;
67768;SDS011;54569;52.018;5.584;2023-07-20T12:00:47;0.70;;;0.55;;
67768;SDS011;54569;52.018;5.584;2023-07-20T12:03:13;0.85;;;0.75;;
67768;SDS011;54569;52.018;5.584;2023-07-20T12:05:39;0.70;;;0.70;;
67768;SDS011;54569;52.018;5.584;2023-07-20T12:08:05;0.93;;;0.50;;
67768;SDS011;54569;52.018;5.584;2023-07-20T12:10:30;0.63;;;0.60;;
67768;SDS011;54569;52.018;5.584;2023-07-20T12:13:02;0.77;;;0.70;;
67768;SDS011;54569;52.018;5.584;2023-07-20T12:15:29;1.40;;;0.68;;
67768;SDS011;54569;52.018;5.584;2023-07-20T12:17:56;0.50;;;0.50;;
67768;SDS011;54569;52.018;5.584;2023-07-20T12:20:30;0.82;;;0.50;;
67768;SDS011;54569;52.018;5.584;2023-07-20T12:23:18;0.82;;;0.60;;
67768;SDS011;54569;52.018;5.584;2023-07-20T12:25:46;0.60;;;0.60;;
67768;SDS011;54569;52.018;5.584;2023-07-20T12:28:16;1.65;;;0.60;;
67768;SDS011;54569;52.018;5.584;2023-07-20T12:30:43;0.60;;;0.50;;
67768;SDS011;54569;52.018;5.584;2023-07-20T12:33:11;0.60;;;0.60;;
67768;SDS011;54569;52.018;5.584;2023-07-20T12:35:40;0.52;;;0.52;;
67768;SDS011;54569;52.018;5.584;2023-07-20T12:38:06;0.93;;;0.70;;
67768;SDS011;54569;52.018;5.584;2023-07-20T12:40:31;0.70;;;0.70;;
67768;SDS011;54569;52.018;5.584;2023-07-20T12:42:59;0.80;;;0.80;;
67768;SDS011;54569;52.018;5.584;2023-07-20T12:45:24;0.90;;;0.80;;
67768;SDS011;54569;52.018;5.584;2023-07-20T12:47:50;0.80;;;0.80;;
67768;SDS011;54569;52.018;5.584;2023-07-20T12:50:16;0.85;;;0.85;;
67768;SDS011;54569;52.018;5.584;2023-07-20T12:52:41;2.00;;;1.00;;
67768;SDS011;54569;52.018;5.584;2023-07-20T12:55:08;0.75;;;0.63;;
67768;SDS011;54569;52.018;5.584;2023-07-20T12:57:35;0.63;;;0.60;;
67768;SDS011;54569;52.018;5.584;2023-07-20T13:00:02;1.17;;;0.73;;
67768;SDS011;54569;52.018;5.584;2023-07-20T13:02:32;1.00;;;0.70;;
67768;SDS011;54569;52.018;5.584;2023-07-20T13:04:58;0.63;;;0.63;;
67768;SDS011;54569;52.018;5.584;2023-07-20T13:07:31;1.13;;;0.70;;
67768;SDS011;54569;52.018;5.584;2023-07-20T13:10:03;4.35;;;0.80;;
67768;SDS011;54569;52.018;5.584;2023-07-20T13:12:30;2.40;;;0.80;;
67768;SDS011;54569;52.018;5.584;2023-07-20T13:14:57;1.52;;;0.80;;
67768;SDS011;54569;52.018;5.584;2023-07-20T13:17:26;0.77;;;0.60;;
67768;SDS011;54569;52.018;5.584;2023-07-20T13:19:52;1.20;;;0.52;;
67768;SDS011;54569;52.018;5.584;2023-07-20T13:22:17;0.75;;;0.55;;
67768;SDS011;54569;52.018;5.584;2023-07-20T13:24:46;0.80;;;0.70;;
67768;SDS011;54569;52.018;5.584;2023-07-20T13:27:16;1.13;;;0.60;;
67768;SDS011;54569;52.018;5.584;2023-07-20T13:29:42;2.38;;;0.68;;
67768;SDS011;54569;52.018;5.584;2023-07-20T13:32:08;0.98;;;0.70;;
67768;SDS011;54569;52.018;5.584;2023-07-20T13:34:34;0.70;;;0.68;;
67768;SDS011;54569;52.018;5.584;2023-07-20T13:37:00;3.25;;;1.10;;
67768;SDS011;54569;52.018;5.584;2023-07-20T13:39:26;1.50;;;0.70;;
67768;SDS011;54569;52.018;5.584;2023-07-20T13:41:53;1.08;;;0.77;;
67768;SDS011;54569;52.018;5.584;2023-07-20T13:44:19;1.10;;;0.70;;
67768;SDS011;54569;52.018;5.584;2023-07-20T13:46:48;1.15;;;1.05;;
67768;SDS011;54569;52.018;5.584;2023-07-20T13:49:15;1.25;;;0.95;;
67768;SDS011;54569;52.018;5.584;2023-07-20T13:51:41;1.42;;;0.80;;
67768;SDS011;54569;52.018;5.584;2023-07-20T13:54:07;0.82;;;0.82;;
67768;SDS011;54569;52.018;5.584;2023-07-20T13:56:33;2.17;;;0.75;;
67768;SDS011;54569;52.018;5.584;2023-07-20T13:58:59;1.63;;;0.82;;
67768;SDS011;54569;52.018;5.584;2023-07-20T14:01:26;0.93;;;0.90;;
67768;SDS011;54569;52.018;5.584;2023-07-20T14:03:53;1.92;;;0.93;;
67768;SDS011;54569;52.018;5.584;2023-07-20T14:06:20;1.00;;;0.80;;
67768;SDS011;54569;52.018;5.584;2023-07-20T14:08:45;1.42;;;0.85;;
67768;SDS011;54569;52.018;5.584;2023-07-20T14:11:15;2.70;;;0.80;;
67768;SDS011;54569;52.018;5.584;2023-07-20T14:13:42;1.02;;;0.90;;
67768;SDS011;54569;52.018;5.584;2023-07-20T14:16:07;1.45;;;0.85;;
67768;SDS011;54569;52.018;5.584;2023-07-20T14:18:33;0.80;;;0.80;;
67768;SDS011;54569;52.018;5.584;2023-07-20T14:20:59;1.27;;;0.90;;
67768;SDS011;54569;52.018;5.584;2023-07-20T14:23:27;1.48;;;0.93;;
67768;SDS011;54569;52.018;5.584;2023-07-20T14:25:53;0.90;;;0.90;;
67768;SDS011;54569;52.018;5.584;2023-07-20T14:28:18;1.25;;;1.02;;
67768;SDS011;54569;52.018;5.584;2023-07-20T14:30:45;0.90;;;0.90;;
67768;SDS011;54569;52.018;5.584;2023-07-20T14:33:11;1.48;;;1.00;;
67768;SDS011;54569;52.018;5.584;2023-07-20T14:35:36;1.88;;;0.90;;
67768;SDS011;54569;52.018;5.584;2023-07-20T14:38:02;1.75;;;0.80;;
67768;SDS011;54569;52.018;5.584;2023-07-20T14:40:28;1.20;;;1.10;;
67768;SDS011;54569;52.018;5.584;2023-07-20T14:42:55;1.08;;;1.08;;
67768;SDS011;54569;52.018;5.584;2023-07-20T14:45:21;0.65;;;0.60;;
67768;SDS011;54569;52.018;5.584;2023-07-20T14:47:47;1.00;;;1.00;;
67768;SDS011;54569;52.018;5.584;2023-07-20T14:50:18;0.80;;;0.80;;
67768;SDS011;54569;52.018;5.584;2023-07-20T14:52:47;0.80;;;0.68;;
67768;SDS011;54569;52.018;5.584;2023-07-20T14:55:13;1.35;;;1.02;;
67768;SDS011;54569;52.018;5.584;2023-07-20T14:57:39;0.80;;;0.80;;
67768;SDS011;54569;52.018;5.584;2023-07-20T15:00:05;1.05;;;0.80;;
67768;SDS011;54569;52.018;5.584;2023-07-20T15:02:33;0.80;;;0.80;;